<?xml version="1.0" encoding="UTF-8" standalone="no" ?>
<gpx xmlns="http://www.topografix.com/GPX/1/1" xmlns:xsi="http://www.w3.org/2001/XMLSchema-instance" xsi:schemaLocation="http://www.topografix.com/GPX/1/1 http://www.topografix.com/GPX/1/1/gpx.xsd" version="1.1" creator="VisuGPX - https://www.visugpx.com">
  <metadata>
    <name>2025-01-14  Randonnée TwoNav</name>
    <desc><![CDATA[2025-01-14_155109.trk]]></desc>
  </metadata>
  <trk>
    <name><![CDATA[2025-01-14  Randonnée TwoNav_1]]></name>
    <trkseg>
      <trkpt lat="48.21018" lon="6.737">
        <ele>489.8</ele>
        <time>2025-01-14T14:51:12Z</time>
      </trkpt>
      <trkpt lat="48.21016" lon="6.73699">
        <ele>489.5</ele>
        <time>2025-01-14T14:51:13Z</time>
      </trkpt>
      <trkpt lat="48.21013" lon="6.73684">
        <ele>488.3</ele>
        <time>2025-01-14T14:51:24Z</time>
      </trkpt>
      <trkpt lat="48.21011" lon="6.73669">
        <ele>488</ele>
        <time>2025-01-14T14:51:32Z</time>
      </trkpt>
      <trkpt lat="48.21013" lon="6.73658">
        <ele>487.7</ele>
        <time>2025-01-14T14:51:46Z</time>
      </trkpt>
      <trkpt lat="48.21013" lon="6.73658">
        <ele>487.7</ele>
        <time>2025-01-14T14:51:47Z</time>
      </trkpt>
      <trkpt lat="48.21013" lon="6.73658">
        <ele>487.7</ele>
        <time>2025-01-14T14:51:48Z</time>
      </trkpt>
      <trkpt lat="48.21013" lon="6.73658">
        <ele>487.7</ele>
        <time>2025-01-14T14:51:51Z</time>
      </trkpt>
      <trkpt lat="48.21014" lon="6.73658">
        <ele>487.7</ele>
        <time>2025-01-14T14:51:52Z</time>
      </trkpt>
      <trkpt lat="48.21014" lon="6.73658">
        <ele>487.7</ele>
        <time>2025-01-14T14:51:53Z</time>
      </trkpt>
      <trkpt lat="48.21024" lon="6.73662">
        <ele>487.3</ele>
        <time>2025-01-14T14:52:07Z</time>
      </trkpt>
      <trkpt lat="48.21033" lon="6.73657">
        <ele>487</ele>
        <time>2025-01-14T14:52:29Z</time>
      </trkpt>
      <trkpt lat="48.2104" lon="6.73667">
        <ele>486.7</ele>
        <time>2025-01-14T14:52:34Z</time>
      </trkpt>
      <trkpt lat="48.21049" lon="6.73672">
        <ele>486.5</ele>
        <time>2025-01-14T14:52:42Z</time>
      </trkpt>
      <trkpt lat="48.21057" lon="6.73679">
        <ele>486.2</ele>
        <time>2025-01-14T14:52:49Z</time>
      </trkpt>
      <trkpt lat="48.21065" lon="6.73687">
        <ele>485.9</ele>
        <time>2025-01-14T14:52:59Z</time>
      </trkpt>
      <trkpt lat="48.21102" lon="6.73702">
        <ele>485.7</ele>
        <time>2025-01-14T14:53:21Z</time>
      </trkpt>
      <trkpt lat="48.21112" lon="6.73701">
        <ele>485.7</ele>
        <time>2025-01-14T14:53:30Z</time>
      </trkpt>
      <trkpt lat="48.21121" lon="6.73693">
        <ele>485.9</ele>
        <time>2025-01-14T14:53:40Z</time>
      </trkpt>
      <trkpt lat="48.2113" lon="6.73685">
        <ele>486.1</ele>
        <time>2025-01-14T14:53:48Z</time>
      </trkpt>
      <trkpt lat="48.21138" lon="6.73676">
        <ele>486.2</ele>
        <time>2025-01-14T14:53:55Z</time>
      </trkpt>
      <trkpt lat="48.21148" lon="6.73659">
        <ele>486.5</ele>
        <time>2025-01-14T14:54:08Z</time>
      </trkpt>
      <trkpt lat="48.21181" lon="6.73633">
        <ele>487</ele>
        <time>2025-01-14T14:54:39Z</time>
      </trkpt>
      <trkpt lat="48.21186" lon="6.73619">
        <ele>487.3</ele>
        <time>2025-01-14T14:54:43Z</time>
      </trkpt>
      <trkpt lat="48.2119" lon="6.73606">
        <ele>487.6</ele>
        <time>2025-01-14T14:54:54Z</time>
      </trkpt>
      <trkpt lat="48.21199" lon="6.73598">
        <ele>488</ele>
        <time>2025-01-14T14:55:00Z</time>
      </trkpt>
      <trkpt lat="48.21205" lon="6.73588">
        <ele>488.2</ele>
        <time>2025-01-14T14:55:11Z</time>
      </trkpt>
      <trkpt lat="48.21217" lon="6.73575">
        <ele>488.6</ele>
        <time>2025-01-14T14:55:19Z</time>
      </trkpt>
      <trkpt lat="48.21225" lon="6.73569">
        <ele>488.9</ele>
        <time>2025-01-14T14:55:24Z</time>
      </trkpt>
      <trkpt lat="48.21233" lon="6.73563">
        <ele>489.3</ele>
        <time>2025-01-14T14:55:28Z</time>
      </trkpt>
      <trkpt lat="48.2124" lon="6.73554">
        <ele>489.5</ele>
        <time>2025-01-14T14:55:36Z</time>
      </trkpt>
      <trkpt lat="48.21242" lon="6.73541">
        <ele>489.6</ele>
        <time>2025-01-14T14:55:43Z</time>
      </trkpt>
      <trkpt lat="48.21247" lon="6.73528">
        <ele>489.7</ele>
        <time>2025-01-14T14:55:53Z</time>
      </trkpt>
      <trkpt lat="48.21254" lon="6.73516">
        <ele>489.7</ele>
        <time>2025-01-14T14:56:00Z</time>
      </trkpt>
      <trkpt lat="48.21261" lon="6.73508">
        <ele>489.7</ele>
        <time>2025-01-14T14:56:06Z</time>
      </trkpt>
      <trkpt lat="48.21268" lon="6.73497">
        <ele>489.6</ele>
        <time>2025-01-14T14:56:14Z</time>
      </trkpt>
      <trkpt lat="48.21276" lon="6.7349">
        <ele>489.6</ele>
        <time>2025-01-14T14:56:23Z</time>
      </trkpt>
      <trkpt lat="48.21284" lon="6.73486">
        <ele>489.6</ele>
        <time>2025-01-14T14:56:31Z</time>
      </trkpt>
      <trkpt lat="48.21295" lon="6.73483">
        <ele>489.5</ele>
        <time>2025-01-14T14:56:39Z</time>
      </trkpt>
      <trkpt lat="48.21304" lon="6.73481">
        <ele>489.5</ele>
        <time>2025-01-14T14:56:46Z</time>
      </trkpt>
      <trkpt lat="48.21314" lon="6.7348">
        <ele>489.5</ele>
        <time>2025-01-14T14:56:54Z</time>
      </trkpt>
      <trkpt lat="48.21323" lon="6.73474">
        <ele>489.4</ele>
        <time>2025-01-14T14:57:02Z</time>
      </trkpt>
      <trkpt lat="48.21333" lon="6.73472">
        <ele>489.3</ele>
        <time>2025-01-14T14:57:08Z</time>
      </trkpt>
      <trkpt lat="48.21342" lon="6.73469">
        <ele>489.1</ele>
        <time>2025-01-14T14:57:16Z</time>
      </trkpt>
      <trkpt lat="48.21351" lon="6.73471">
        <ele>488.8</ele>
        <time>2025-01-14T14:57:23Z</time>
      </trkpt>
      <trkpt lat="48.2136" lon="6.73471">
        <ele>488.3</ele>
        <time>2025-01-14T14:57:30Z</time>
      </trkpt>
      <trkpt lat="48.21372" lon="6.73469">
        <ele>487.7</ele>
        <time>2025-01-14T14:57:36Z</time>
      </trkpt>
      <trkpt lat="48.21382" lon="6.73471">
        <ele>487.1</ele>
        <time>2025-01-14T14:57:42Z</time>
      </trkpt>
      <trkpt lat="48.21392" lon="6.73473">
        <ele>486.6</ele>
        <time>2025-01-14T14:57:50Z</time>
      </trkpt>
      <trkpt lat="48.21401" lon="6.73478">
        <ele>486.3</ele>
        <time>2025-01-14T14:57:57Z</time>
      </trkpt>
      <trkpt lat="48.21406" lon="6.7349">
        <ele>486.1</ele>
        <time>2025-01-14T14:58:07Z</time>
      </trkpt>
      <trkpt lat="48.2141" lon="6.73504">
        <ele>486</ele>
        <time>2025-01-14T14:58:14Z</time>
      </trkpt>
      <trkpt lat="48.2141" lon="6.73518">
        <ele>486</ele>
        <time>2025-01-14T14:58:21Z</time>
      </trkpt>
      <trkpt lat="48.21409" lon="6.73533">
        <ele>486.1</ele>
        <time>2025-01-14T14:58:28Z</time>
      </trkpt>
      <trkpt lat="48.21409" lon="6.73546">
        <ele>486.2</ele>
        <time>2025-01-14T14:58:37Z</time>
      </trkpt>
      <trkpt lat="48.21406" lon="6.73558">
        <ele>486.4</ele>
        <time>2025-01-14T14:58:47Z</time>
      </trkpt>
      <trkpt lat="48.21406" lon="6.73558">
        <ele>486.4</ele>
        <time>2025-01-14T14:58:48Z</time>
      </trkpt>
      <trkpt lat="48.21405" lon="6.7356">
        <ele>486.5</ele>
        <time>2025-01-14T14:58:49Z</time>
      </trkpt>
      <trkpt lat="48.21405" lon="6.73561">
        <ele>486.5</ele>
        <time>2025-01-14T14:58:50Z</time>
      </trkpt>
      <trkpt lat="48.21404" lon="6.73562">
        <ele>486.6</ele>
        <time>2025-01-14T14:58:51Z</time>
      </trkpt>
      <trkpt lat="48.21396" lon="6.7357">
        <ele>487.1</ele>
        <time>2025-01-14T14:59:00Z</time>
      </trkpt>
      <trkpt lat="48.21388" lon="6.73578">
        <ele>487.7</ele>
        <time>2025-01-14T14:59:14Z</time>
      </trkpt>
      <trkpt lat="48.21379" lon="6.73587">
        <ele>488.5</ele>
        <time>2025-01-14T14:59:24Z</time>
      </trkpt>
      <trkpt lat="48.2137" lon="6.73593">
        <ele>489.3</ele>
        <time>2025-01-14T14:59:30Z</time>
      </trkpt>
      <trkpt lat="48.21362" lon="6.736">
        <ele>490.1</ele>
        <time>2025-01-14T14:59:38Z</time>
      </trkpt>
      <trkpt lat="48.21354" lon="6.73605">
        <ele>491</ele>
        <time>2025-01-14T14:59:46Z</time>
      </trkpt>
      <trkpt lat="48.21345" lon="6.73613">
        <ele>491.8</ele>
        <time>2025-01-14T14:59:53Z</time>
      </trkpt>
      <trkpt lat="48.21344" lon="6.73613">
        <ele>491.9</ele>
        <time>2025-01-14T14:59:56Z</time>
      </trkpt>
      <trkpt lat="48.21344" lon="6.73613">
        <ele>491.9</ele>
        <time>2025-01-14T14:59:57Z</time>
      </trkpt>
      <trkpt lat="48.21345" lon="6.73614">
        <ele>492</ele>
        <time>2025-01-14T14:59:58Z</time>
      </trkpt>
      <trkpt lat="48.21345" lon="6.73614">
        <ele>492</ele>
        <time>2025-01-14T14:59:59Z</time>
      </trkpt>
      <trkpt lat="48.21345" lon="6.73615">
        <ele>492.1</ele>
        <time>2025-01-14T15:00:00Z</time>
      </trkpt>
      <trkpt lat="48.21344" lon="6.73616">
        <ele>492.2</ele>
        <time>2025-01-14T15:00:01Z</time>
      </trkpt>
      <trkpt lat="48.21336" lon="6.73626">
        <ele>493.1</ele>
        <time>2025-01-14T15:00:10Z</time>
      </trkpt>
      <trkpt lat="48.21327" lon="6.73632">
        <ele>494.1</ele>
        <time>2025-01-14T15:00:17Z</time>
      </trkpt>
      <trkpt lat="48.2132" lon="6.73641">
        <ele>495.2</ele>
        <time>2025-01-14T15:00:25Z</time>
      </trkpt>
      <trkpt lat="48.21312" lon="6.73649">
        <ele>496.3</ele>
        <time>2025-01-14T15:00:32Z</time>
      </trkpt>
      <trkpt lat="48.21304" lon="6.73656">
        <ele>497.2</ele>
        <time>2025-01-14T15:00:39Z</time>
      </trkpt>
      <trkpt lat="48.21295" lon="6.73662">
        <ele>497.9</ele>
        <time>2025-01-14T15:00:47Z</time>
      </trkpt>
      <trkpt lat="48.21287" lon="6.73671">
        <ele>498.5</ele>
        <time>2025-01-14T15:00:57Z</time>
      </trkpt>
      <trkpt lat="48.21279" lon="6.73677">
        <ele>498.8</ele>
        <time>2025-01-14T15:01:04Z</time>
      </trkpt>
      <trkpt lat="48.21276" lon="6.73685">
        <ele>498.8</ele>
        <time>2025-01-14T15:01:16Z</time>
      </trkpt>
      <trkpt lat="48.21276" lon="6.73686">
        <ele>498.8</ele>
        <time>2025-01-14T15:01:17Z</time>
      </trkpt>
      <trkpt lat="48.21276" lon="6.73686">
        <ele>498.9</ele>
        <time>2025-01-14T15:01:18Z</time>
      </trkpt>
      <trkpt lat="48.21276" lon="6.73687">
        <ele>498.9</ele>
        <time>2025-01-14T15:01:21Z</time>
      </trkpt>
      <trkpt lat="48.21275" lon="6.73687">
        <ele>498.9</ele>
        <time>2025-01-14T15:01:22Z</time>
      </trkpt>
      <trkpt lat="48.21275" lon="6.73688">
        <ele>498.9</ele>
        <time>2025-01-14T15:01:23Z</time>
      </trkpt>
      <trkpt lat="48.21265" lon="6.73692">
        <ele>498.7</ele>
        <time>2025-01-14T15:01:29Z</time>
      </trkpt>
      <trkpt lat="48.21256" lon="6.73698">
        <ele>498.5</ele>
        <time>2025-01-14T15:01:35Z</time>
      </trkpt>
      <trkpt lat="48.21248" lon="6.73705">
        <ele>498.4</ele>
        <time>2025-01-14T15:01:42Z</time>
      </trkpt>
      <trkpt lat="48.21242" lon="6.73717">
        <ele>498.2</ele>
        <time>2025-01-14T15:01:51Z</time>
      </trkpt>
      <trkpt lat="48.21235" lon="6.73728">
        <ele>498.3</ele>
        <time>2025-01-14T15:01:59Z</time>
      </trkpt>
      <trkpt lat="48.21232" lon="6.73742">
        <ele>498.3</ele>
        <time>2025-01-14T15:02:07Z</time>
      </trkpt>
      <trkpt lat="48.21234" lon="6.73756">
        <ele>498.2</ele>
        <time>2025-01-14T15:02:14Z</time>
      </trkpt>
      <trkpt lat="48.21227" lon="6.73766">
        <ele>498.1</ele>
        <time>2025-01-14T15:02:20Z</time>
      </trkpt>
      <trkpt lat="48.21222" lon="6.73777">
        <ele>498</ele>
        <time>2025-01-14T15:02:25Z</time>
      </trkpt>
      <trkpt lat="48.21217" lon="6.7379">
        <ele>497.8</ele>
        <time>2025-01-14T15:02:33Z</time>
      </trkpt>
      <trkpt lat="48.21213" lon="6.73804">
        <ele>497.8</ele>
        <time>2025-01-14T15:02:42Z</time>
      </trkpt>
      <trkpt lat="48.21205" lon="6.73812">
        <ele>497.7</ele>
        <time>2025-01-14T15:02:48Z</time>
      </trkpt>
      <trkpt lat="48.21196" lon="6.73816">
        <ele>497.6</ele>
        <time>2025-01-14T15:02:55Z</time>
      </trkpt>
      <trkpt lat="48.21187" lon="6.73818">
        <ele>497.5</ele>
        <time>2025-01-14T15:03:04Z</time>
      </trkpt>
      <trkpt lat="48.21176" lon="6.73818">
        <ele>497.3</ele>
        <time>2025-01-14T15:03:11Z</time>
      </trkpt>
      <trkpt lat="48.21167" lon="6.73813">
        <ele>497.2</ele>
        <time>2025-01-14T15:03:18Z</time>
      </trkpt>
      <trkpt lat="48.21158" lon="6.73806">
        <ele>497.2</ele>
        <time>2025-01-14T15:03:27Z</time>
      </trkpt>
      <trkpt lat="48.21149" lon="6.73799">
        <ele>497.3</ele>
        <time>2025-01-14T15:03:35Z</time>
      </trkpt>
      <trkpt lat="48.2114" lon="6.73792">
        <ele>497.4</ele>
        <time>2025-01-14T15:03:41Z</time>
      </trkpt>
      <trkpt lat="48.21132" lon="6.73785">
        <ele>497.4</ele>
        <time>2025-01-14T15:03:49Z</time>
      </trkpt>
      <trkpt lat="48.21123" lon="6.73779">
        <ele>497.4</ele>
        <time>2025-01-14T15:03:57Z</time>
      </trkpt>
      <trkpt lat="48.21114" lon="6.73774">
        <ele>497.3</ele>
        <time>2025-01-14T15:04:02Z</time>
      </trkpt>
      <trkpt lat="48.2111" lon="6.73762">
        <ele>497.2</ele>
        <time>2025-01-14T15:04:16Z</time>
      </trkpt>
      <trkpt lat="48.21102" lon="6.73757">
        <ele>496.9</ele>
        <time>2025-01-14T15:04:22Z</time>
      </trkpt>
      <trkpt lat="48.21093" lon="6.73755">
        <ele>496.7</ele>
        <time>2025-01-14T15:04:28Z</time>
      </trkpt>
      <trkpt lat="48.21084" lon="6.73755">
        <ele>496.5</ele>
        <time>2025-01-14T15:04:37Z</time>
      </trkpt>
      <trkpt lat="48.21074" lon="6.73751">
        <ele>496.2</ele>
        <time>2025-01-14T15:04:45Z</time>
      </trkpt>
      <trkpt lat="48.21064" lon="6.7375">
        <ele>495.7</ele>
        <time>2025-01-14T15:04:51Z</time>
      </trkpt>
      <trkpt lat="48.21054" lon="6.73749">
        <ele>495</ele>
        <time>2025-01-14T15:04:57Z</time>
      </trkpt>
      <trkpt lat="48.21045" lon="6.73746">
        <ele>494.2</ele>
        <time>2025-01-14T15:05:04Z</time>
      </trkpt>
      <trkpt lat="48.21036" lon="6.7374">
        <ele>493.2</ele>
        <time>2025-01-14T15:05:13Z</time>
      </trkpt>
      <trkpt lat="48.21023" lon="6.73726">
        <ele>491.5</ele>
        <time>2025-01-14T15:05:21Z</time>
      </trkpt>
      <trkpt lat="48.21019" lon="6.73721">
        <ele>490.9</ele>
        <time>2025-01-14T15:05:32Z</time>
      </trkpt>
      <trkpt lat="48.21015" lon="6.73715">
        <ele>490.3</ele>
        <time>2025-01-14T15:05:41Z</time>
      </trkpt>
      <trkpt lat="48.21011" lon="6.7371">
        <ele>489.7</ele>
        <time>2025-01-14T15:05:49Z</time>
      </trkpt>
      <trkpt lat="48.21007" lon="6.73705">
        <ele>489.1</ele>
        <time>2025-01-14T15:05:49Z</time>
      </trkpt>
      <trkpt lat="48.21007" lon="6.73705">
        <ele>489.1</ele>
        <time>2025-01-14T15:05:49Z</time>
      </trkpt>
      <trkpt lat="48.21007" lon="6.73705">
        <ele>489.1</ele>
        <time>2025-01-14T15:05:49Z</time>
      </trkpt>
    </trkseg>
  </trk>
</gpx>